Time;durP1;ratioP1;P1;durP2;ratioP2;P2;SDS_P1;SDS_P2;PMS_P1;PMS_P2;Temp;Humidity;BMP_temperature;BMP_pressure;BME280_temperature;BME280_humidity;BME280_pressure;Samples;Min_cycle;Max_cycle;Signal;HPM_P1;HPM_P2
2022/11/14 00:01:49;;;;;;;21.67;16.38;;;;;;;5.77;95.32;98078.31;5139327;23;20530;-87
2022/11/14 00:04:10;;;;;;;20.42;15.55;;;;;;;5.80;95.11;98071.25;5138380;23;20696;-88
2022/11/14 00:06:33;;;;;;;22.02;16.27;;;;;;;5.81;95.54;98075.50;5139064;22;20175;-89
2022/11/14 00:08:55;;;;;;;18.63;15.35;;;;;;;5.83;95.45;98078.88;5136594;23;20254;-88
2022/11/14 00:11:16;;;;;;;19.20;14.60;;;;;;;5.83;95.27;98068.53;5137906;23;20183;-88
2022/11/14 00:13:38;;;;;;;20.75;13.75;;;;;;;5.86;95.30;98062.34;5137481;23;20647;-88
2022/11/14 00:16:00;;;;;;;19.35;13.88;;;;;;;5.82;95.22;98064.25;5138565;23;20226;-88
2022/11/14 00:18:22;;;;;;;17.05;13.57;;;;;;;5.83;95.30;98059.91;5138452;23;20210;-88
2022/11/14 00:20:44;;;;;;;17.33;13.15;;;;;;;5.83;95.08;98063.34;5138284;23;20725;-88
2022/11/14 00:23:06;;;;;;;20.45;13.13;;;;;;;5.82;94.92;98064.25;5138189;23;20209;-88
2022/11/14 00:25:28;;;;;;;17.38;11.88;;;;;;;5.84;95.04;98066.75;5138652;22;20522;-88
2022/11/14 00:27:50;;;;;;;15.93;12.40;;;;;;;5.85;95.10;98055.47;5137266;23;20213;-88
2022/11/14 00:30:11;;;;;;;19.65;12.70;;;;;;;5.86;95.35;98073.50;5138222;23;20171;-88
2022/11/14 00:32:33;;;;;;;16.33;12.20;;;;;;;5.88;95.53;98073.44;5139008;23;20287;-88
2022/11/14 00:34:55;;;;;;;16.50;12.93;;;;;;;5.91;96.03;98071.56;5138505;23;20178;-88
2022/11/14 00:37:17;;;;;;;16.50;12.05;;;;;;;5.92;95.60;98065.44;5140726;23;20185;-88
2022/11/14 00:39:40;;;;;;;15.68;12.27;;;;;;;5.95;96.22;98059.28;5138066;23;20186;-88
2022/11/14 00:42:01;;;;;;;17.45;11.90;;;;;;;5.96;96.40;98056.63;5140750;23;20248;-88
2022/11/14 00:44:23;;;;;;;14.80;11.10;;;;;;;5.99;96.31;98053.88;5139078;23;20574;-88
2022/11/14 00:46:45;;;;;;;16.02;11.80;;;;;;;6.00;96.09;98058.16;5140411;23;20178;-88
2022/11/14 00:49:06;;;;;;;16.48;10.65;;;;;;;6.04;96.18;98061.41;5139749;23;20171;-88
2022/11/14 00:51:28;;;;;;;16.25;11.38;;;;;;;6.04;96.07;98064.81;5140240;23;20183;-88
2022/11/14 00:53:50;;;;;;;15.02;11.43;;;;;;;6.08;97.03;98062.94;5139411;23;20648;-88
2022/11/14 00:56:13;;;;;;;12.63;9.95;;;;;;;6.09;96.92;98061.09;5140409;23;20201;-88
2022/11/14 00:58:34;;;;;;;15.50;10.55;;;;;;;6.09;96.92;98058.50;5140523;23;20204;-88
2022/11/14 01:00:56;;;;;;;15.15;9.90;;;;;;;6.10;96.28;98055.00;5142523;23;20182;-88
2022/11/14 01:03:18;;;;;;;14.40;10.80;;;;;;;6.14;96.89;98055.69;5139836;23;20200;-88
2022/11/14 01:05:43;;;;;;;14.32;11.10;;;;;;;6.17;97.16;98060.69;5139027;23;20651;-87
2022/11/14 01:08:05;;;;;;;14.05;10.45;;;;;;;6.19;97.33;98057.13;5141284;22;20183;-88
2022/11/14 01:10:26;;;;;;;15.88;10.95;;;;;;;6.22;96.83;98054.38;5139885;23;20543;-89
2022/11/14 01:12:50;;;;;;;14.68;10.73;;;;;;;6.22;96.85;98056.97;5141254;22;20186;-88
2022/11/14 01:15:12;;;;;;;12.18;9.38;;;;;;;6.24;96.42;98057.72;5139169;23;20170;-88
2022/11/14 01:17:33;;;;;;;14.70;10.45;;;;;;;6.27;97.17;98054.97;5139096;23;20191;-88
2022/11/14 01:19:54;;;;;;;12.63;9.52;;;;;;;6.26;96.70;98055.06;5138986;23;20178;-88
2022/11/14 01:22:16;;;;;;;17.13;10.90;;;;;;;6.25;96.47;98055.97;5139081;23;20282;-88
2022/11/14 01:24:37;;;;;;;12.90;10.25;;;;;;;6.24;96.54;98060.31;5139887;23;20198;-88
2022/11/14 01:26:59;;;;;;;11.82;9.40;;;;;;;6.26;96.93;98062.81;5141232;22;20515;-88
2022/11/14 01:29:22;;;;;;;13.57;9.40;;;;;;;6.28;96.71;98061.81;5139461;23;20172;-88
2022/11/14 01:31:44;;;;;;;19.88;13.55;;;;;;;6.32;96.79;98068.50;5138536;23;20178;-88
2022/11/14 01:34:05;;;;;;;13.45;9.90;;;;;;;6.33;96.56;98065.00;5138875;23;20178;-88
2022/11/14 01:36:30;;;;;;;14.40;9.73;;;;;;;6.32;96.49;98050.38;5139142;23;20258;-88
2022/11/14 01:38:53;;;;;;;12.38;9.30;;;;;;;6.30;96.46;98047.03;5138807;23;20184;-88
2022/11/14 01:41:15;;;;;;;12.57;9.20;;;;;;;6.32;96.70;98046.97;5140096;23;20182;-88
2022/11/14 01:43:38;;;;;;;15.10;9.88;;;;;;;6.34;96.56;98035.59;5140334;23;20230;-88
2022/11/14 01:46:03;;;;;;;13.60;10.82;;;;;;;6.36;97.47;98033.78;5139190;23;20634;-88
2022/11/14 01:48:28;;;;;;;12.43;9.80;;;;;;;6.38;96.75;98037.13;5139472;23;20179;-88
2022/11/14 01:50:54;;;;;;;15.80;10.25;;;;;;;6.40;96.94;98037.03;5139307;23;20179;-88
2022/11/14 01:53:16;;;;;;;14.05;10.50;;;;;;;6.41;97.56;98031.78;5140259;22;20246;-88
2022/11/14 01:55:37;;;;;;;12.55;9.50;;;;;;;6.42;97.17;98030.88;5139425;23;20571;-88
2022/11/14 01:58:00;;;;;;;16.13;10.18;;;;;;;6.43;96.54;98027.34;5141877;22;20195;-88
2022/11/14 02:00:22;;;;;;;17.50;10.10;;;;;;;6.44;97.33;98028.19;5139713;23;20521;-88
2022/11/14 02:02:44;;;;;;;16.48;11.30;;;;;;;6.44;97.49;98028.19;5139763;23;20168;-88
2022/11/14 02:05:08;;;;;;;13.90;11.05;;;;;;;6.43;97.39;98026.50;5138890;23;20203;-88
2022/11/14 02:07:33;;;;;;;15.15;11.05;;;;;;;6.46;97.05;98022.00;5140773;22;20184;-88
2022/11/14 02:09:55;;;;;;;13.40;10.43;;;;;;;6.45;97.34;98019.50;5138861;23;20272;-88
2022/11/14 02:12:19;;;;;;;13.27;10.23;;;;;;;6.44;96.89;98017.84;5138395;23;20182;-89
2022/11/14 02:14:44;;;;;;;13.88;10.23;;;;;;;6.42;97.16;98007.56;5139273;23;20162;-88
2022/11/14 02:17:05;;;;;;;11.90;9.60;;;;;;;6.42;96.78;98006.69;5139531;23;20178;-89
2022/11/14 02:19:51;;;;;;;14.38;9.82;;;;;;;6.41;97.21;98023.19;5139881;23;20170;-89
2022/11/14 02:22:14;;;;;;;11.85;9.65;;;;;;;6.41;97.28;98005.88;5139495;23;20262;-89
2022/11/14 02:24:35;;;;;;;13.57;9.35;;;;;;;6.40;97.20;98018.91;5138750;23;20246;-89
2022/11/14 02:26:57;;;;;;;13.02;9.50;;;;;;;6.40;96.24;98014.56;5138873;23;20294;-89
2022/11/14 02:29:19;;;;;;;16.33;9.85;;;;;;;6.39;97.34;98001.69;5138519;23;21028;-88
2022/11/14 02:31:41;;;;;;;14.43;10.05;;;;;;;6.38;97.09;98006.03;5138630;23;20765;-89
2022/11/14 02:34:02;;;;;;;11.77;10.30;;;;;;;6.34;96.11;98001.94;5141020;22;20210;-89
2022/11/14 02:36:24;;;;;;;13.60;9.85;;;;;;;6.31;96.02;98002.09;5138026;23;20172;-89
2022/11/14 02:38:47;;;;;;;13.55;10.00;;;;;;;6.28;96.51;98004.84;5140793;23;20182;-89
2022/11/14 02:41:08;;;;;;;14.70;9.25;;;;;;;6.26;95.65;98000.69;5139128;23;20178;-89
2022/11/14 02:43:30;;;;;;;12.68;10.68;;;;;;;6.24;95.57;97995.59;5138811;23;20175;-89
2022/11/14 02:45:52;;;;;;;13.95;10.40;;;;;;;6.21;96.29;98000.91;5137937;23;20204;-89
2022/11/14 02:48:13;;;;;;;11.27;9.25;;;;;;;6.19;96.00;97997.59;5140290;23;20199;-89
2022/11/14 02:50:35;;;;;;;12.40;9.60;;;;;;;6.14;95.13;97996.97;5139177;23;20258;-89
2022/11/14 02:52:56;;;;;;;11.02;9.18;;;;;;;6.10;95.03;98004.97;5138819;23;20222;-89
2022/11/14 02:55:19;;;;;;;13.00;9.57;;;;;;;6.07;95.08;98009.47;5138496;23;20257;-89
2022/11/14 02:57:40;;;;;;;13.80;10.15;;;;;;;6.04;95.22;98020.00;5137902;23;20608;-89
2022/11/14 03:00:02;;;;;;;13.00;10.80;;;;;;;6.03;94.39;98018.31;5138149;23;20201;-89
2022/11/14 03:02:24;;;;;;;15.43;11.18;;;;;;;6.00;95.30;98013.28;5139151;23;20181;-89
2022/11/14 03:04:45;;;;;;;22.13;12.15;;;;;;;6.00;95.06;98008.13;5140269;22;20614;-89
2022/11/14 03:07:07;;;;;;;16.25;10.85;;;;;;;6.01;95.63;98009.81;5138030;23;20198;-88
2022/11/14 03:09:29;;;;;;;17.15;10.38;;;;;;;5.96;94.95;98001.44;5140659;23;20497;-88
2022/11/14 03:11:52;;;;;;;16.50;10.45;;;;;;;5.92;94.41;97999.91;5139200;23;20220;-89
2022/11/14 03:14:13;;;;;;;18.83;13.80;;;;;;;5.86;94.56;97990.72;5138552;23;20202;-88
2022/11/14 03:16:35;;;;;;;19.27;14.27;;;;;;;5.83;95.12;97979.69;5138690;23;20166;-89
2022/11/14 03:18:56;;;;;;;19.60;14.25;;;;;;;5.82;95.59;97970.28;5139592;23;20175;-89
2022/11/14 03:21:19;;;;;;;16.40;11.90;;;;;;;5.79;95.27;97975.63;5138499;23;20175;-89
2022/11/14 03:23:41;;;;;;;16.30;11.20;;;;;;;5.75;94.57;97981.84;5139646;22;20193;-89
2022/11/14 03:26:05;;;;;;;15.57;10.50;;;;;;;5.67;94.17;97982.19;5138213;23;20260;-89
2022/11/14 03:28:28;;;;;;;17.10;11.98;;;;;;;5.65;95.00;97970.25;5141102;22;20229;-89
2022/11/14 03:30:50;;;;;;;14.85;11.52;;;;;;;5.61;94.64;97972.16;5139400;23;20174;-88
2022/11/14 03:33:11;;;;;;;15.50;11.45;;;;;;;5.54;94.61;97964.78;5139280;23;20949;-89
2022/11/14 03:35:33;;;;;;;14.57;10.73;;;;;;;5.50;95.00;97957.28;5138798;23;20175;-88
2022/11/14 03:37:55;;;;;;;13.32;9.98;;;;;;;5.44;95.00;97960.16;5137979;23;20245;-88
2022/11/14 03:40:17;;;;;;;14.85;10.52;;;;;;;5.42;94.86;97955.06;5139119;23;20532;-88
2022/11/14 03:42:39;;;;;;;14.25;11.23;;;;;;;5.37;94.15;97954.47;5138656;23;20916;-88
2022/11/14 03:45:02;;;;;;;15.77;11.00;;;;;;;5.34;93.86;97943.47;5138361;23;20603;-88
2022/11/14 03:47:24;;;;;;;21.98;12.75;;;;;;;5.34;94.12;97952.03;5138778;23;20254;-88
2022/11/14 03:49:45;;;;;;;24.20;13.40;;;;;;;5.29;93.64;97946.28;5139002;23;20257;-88
2022/11/14 03:52:07;;;;;;;22.15;13.15;;;;;;;5.26;93.04;97946.41;5139594;22;20170;-89
2022/11/14 03:54:28;;;;;;;24.30;13.30;;;;;;;5.25;93.84;97955.06;5137972;23;20186;-89
2022/11/14 03:56:50;;;;;;;27.02;13.45;;;;;;;5.26;93.92;97961.06;5138850;23;20175;-88
2022/11/14 03:59:12;;;;;;;42.00;14.10;;;;;;;5.23;92.82;97966.41;5139680;23;20174;-88
2022/11/14 04:01:35;;;;;;;18.58;13.18;;;;;;;5.23;95.46;97964.66;5139206;23;20175;-88
2022/11/14 04:03:57;;;;;;;20.40;13.13;;;;;;;5.29;95.74;97979.88;5138704;23;20201;-88
2022/11/14 04:06:19;;;;;;;20.08;13.93;;;;;;;5.30;95.73;97984.13;5137942;23;20919;-90
2022/11/14 04:08:41;;;;;;;21.50;15.45;;;;;;;5.31;95.25;97979.81;5139038;23;20186;-87
2022/11/14 04:11:03;;;;;;;23.83;16.20;;;;;;;5.29;95.89;97976.44;5140351;23;20251;-88
2022/11/14 04:13:24;;;;;;;19.17;14.25;;;;;;;5.30;95.88;97972.94;5141597;23;20257;-88
2022/11/14 04:15:46;;;;;;;21.80;14.38;;;;;;;5.33;95.98;97972.78;5141745;22;20175;-89
2022/11/14 04:18:08;;;;;;;19.73;14.30;;;;;;;5.31;95.90;97979.81;5141380;22;20186;-89
2022/11/14 04:20:30;;;;;;;21.50;14.82;;;;;;;5.29;95.61;97982.47;5140165;23;20179;-88
2022/11/14 04:22:52;;;;;;;22.45;15.70;;;;;;;5.28;95.17;97983.38;5140406;23;20185;-88
2022/11/14 04:25:14;;;;;;;20.17;14.35;;;;;;;5.30;95.60;97968.59;5140477;23;20210;-88
2022/11/14 04:27:36;;;;;;;23.88;15.05;;;;;;;5.27;94.54;97967.94;5141267;22;20199;-88
2022/11/14 04:29:57;;;;;;;18.95;14.05;;;;;;;5.24;94.82;97957.75;5139676;23;20596;-88
2022/11/14 04:32:19;;;;;;;21.83;14.65;;;;;;;5.20;94.89;97954.47;5135701;23;20254;-88
2022/11/14 04:34:42;;;;;;;20.13;14.32;;;;;;;5.21;94.77;97957.88;5139314;23;20178;-89
2022/11/14 04:37:03;;;;;;;20.90;14.23;;;;;;;5.23;95.24;97962.09;5139007;23;20171;-88
2022/11/14 04:39:25;;;;;;;20.20;14.30;;;;;;;5.23;95.23;97953.47;5141760;22;20179;-88
2022/11/14 04:41:47;;;;;;;19.65;14.05;;;;;;;5.24;94.71;97953.41;5142433;22;20775;-88
2022/11/14 04:44:09;;;;;;;19.10;14.05;;;;;;;5.23;95.04;97951.75;5139439;23;20174;-88
2022/11/14 04:46:30;;;;;;;21.17;14.57;;;;;;;5.21;94.56;97940.63;5140498;23;20246;-88
2022/11/14 04:48:52;;;;;;;18.23;13.38;;;;;;;5.18;94.48;97937.38;5140925;23;20171;-88
2022/11/14 04:51:14;;;;;;;19.73;12.57;;;;;;;5.16;94.09;97931.44;5138756;23;20612;-89
2022/11/14 04:53:36;;;;;;;41.35;13.85;;;;;;;5.13;93.86;97917.81;5140535;23;20187;-89
2022/11/14 04:55:58;;;;;;;40.97;12.90;;;;;;;5.09;94.95;97921.50;5138263;23;20179;-88
2022/11/14 04:58:20;;;;;;;26.27;12.85;;;;;;;5.06;94.42;97919.06;5141452;23;20163;-88
2022/11/14 05:00:41;;;;;;;53.10;13.10;;;;;;;4.99;94.04;97905.63;5139364;23;20187;-88
2022/11/14 05:03:03;;;;;;;40.83;13.73;;;;;;;4.95;94.64;97905.84;5139176;23;20175;-88
2022/11/14 05:05:24;;;;;;;60.63;14.55;;;;;;;4.95;94.64;97908.41;5139890;23;20174;-88
2022/11/14 05:07:48;;;;;;;40.45;13.57;;;;;;;4.92;94.03;97909.41;5141393;22;20206;-88
2022/11/14 05:10:10;;;;;;;19.77;11.98;;;;;;;4.88;94.62;97907.03;5140171;23;20258;-88
2022/11/14 05:12:31;;;;;;;17.15;11.75;;;;;;;4.87;94.15;97906.22;5140040;23;20175;-89
2022/11/14 05:14:52;;;;;;;19.75;12.55;;;;;;;4.86;95.03;97896.78;5139360;23;20963;-89
2022/11/14 05:17:15;;;;;;;14.82;11.80;;;;;;;4.88;94.53;97897.53;5141277;22;20162;-89
2022/11/14 05:19:36;;;;;;;35.83;14.27;;;;;;;4.88;95.01;97900.13;5139635;23;20264;-88
2022/11/14 05:21:58;;;;;;;21.40;11.93;;;;;;;4.87;94.75;97900.19;5140693;23;20504;-89
2022/11/14 05:24:21;;;;;;;64.53;15.75;;;;;;;4.85;94.26;97900.25;5139122;23;20171;-89
2022/11/14 05:26:42;;;;;;;43.53;14.02;;;;;;;4.82;95.29;97899.59;5139626;23;20176;-89
2022/11/14 05:29:04;;;;;;;36.47;12.32;;;;;;;4.81;94.45;97903.06;5139981;23;20619;-89
2022/11/14 05:31:26;;;;;;;13.68;10.73;;;;;;;4.84;94.72;97897.75;5138960;23;20534;-89
2022/11/14 05:33:47;;;;;;;21.83;12.90;;;;;;;4.85;95.46;97897.69;5139414;23;20232;-89
2022/11/14 05:36:10;;;;;;;15.55;11.80;;;;;;;4.86;95.31;97901.13;5139790;23;20177;-88
2022/11/14 05:38:32;;;;;;;34.55;13.65;;;;;;;4.87;94.84;97911.38;5140137;23;20547;-89
2022/11/14 05:40:55;;;;;;;22.92;13.05;;;;;;;4.84;93.95;97905.50;5140841;23;21007;-88
2022/11/14 05:43:17;;;;;;;61.00;19.48;;;;;;;4.82;93.41;97908.16;5140510;23;20190;-88
2022/11/14 05:45:39;;;;;;;21.50;14.65;;;;;;;4.78;92.96;97913.53;5139465;23;20198;-88
2022/11/14 05:48:00;;;;;;;60.47;23.90;;;;;;;4.75;93.53;97905.94;5139227;23;20225;-89
2022/11/14 05:50:22;;;;;;;44.13;20.67;;;;;;;4.72;93.15;97901.78;5139981;23;20190;-89
2022/11/14 05:52:43;;;;;;;51.50;21.77;;;;;;;4.69;92.78;97911.41;5140655;23;20646;-89
2022/11/14 05:55:06;;;;;;;73.25;18.20;;;;;;;4.68;93.36;97903.78;5137565;23;20174;-89
2022/11/14 05:57:30;;;;;;;66.65;21.00;;;;;;;4.64;93.64;97904.81;5141461;22;20179;-89
2022/11/14 05:59:52;;;;;;;89.75;21.98;;;;;;;4.62;94.20;97899.72;5142787;23;20181;-89
2022/11/14 06:02:13;;;;;;;58.97;17.30;;;;;;;4.62;93.25;97891.16;5140648;23;20174;-89
2022/11/14 06:04:35;;;;;;;66.78;18.10;;;;;;;4.64;94.28;97894.50;5141483;22;20520;-88
2022/11/14 06:06:57;;;;;;;33.38;14.80;;;;;;;4.63;93.92;97900.53;5138857;23;20182;-88
2022/11/14 06:09:18;;;;;;;38.60;15.20;;;;;;;4.66;93.91;97905.56;5139292;23;20317;-89
2022/11/14 06:11:39;;;;;;;61.63;15.85;;;;;;;4.69;94.79;97906.25;5140424;22;20210;-88
2022/11/14 06:14:03;;;;;;;42.42;14.80;;;;;;;4.67;94.50;97899.50;5140360;22;20561;-89
2022/11/14 06:16:30;;;;;;;29.13;13.07;;;;;;;4.68;94.33;97911.50;5138615;23;20175;-88
2022/11/14 06:18:53;;;;;;;64.55;15.52;;;;;;;4.68;93.72;97909.75;5139453;23;20180;-89
2022/11/14 06:21:17;;;;;;;33.38;13.80;;;;;;;4.68;93.70;97906.34;5139229;23;20164;-89
2022/11/14 06:23:39;;;;;;;33.60;13.82;;;;;;;4.68;93.31;97902.84;5139234;23;20180;-88
2022/11/14 06:26:01;;;;;;;21.75;12.30;;;;;;;4.69;93.78;97906.25;5138422;23;20175;-88
2022/11/14 06:28:23;;;;;;;17.77;12.70;;;;;;;4.71;93.38;97904.44;5138744;23;20194;-89
2022/11/14 06:30:46;;;;;;;27.50;13.75;;;;;;;4.75;93.80;97903.38;5137390;23;20184;-89
2022/11/14 06:33:07;;;;;;;21.83;14.07;;;;;;;4.75;94.00;97900.78;5138400;23;20179;-89
2022/11/14 06:35:31;;;;;;;19.30;12.82;;;;;;;4.78;94.13;97900.63;5138888;23;20189;-89
2022/11/14 06:37:53;;;;;;;19.77;13.90;;;;;;;4.81;95.41;97900.50;5139536;23;20184;-89
2022/11/14 06:40:15;;;;;;;19.30;14.00;;;;;;;4.86;94.71;97904.53;5139243;23;20171;-89
2022/11/14 06:42:36;;;;;;;24.65;14.40;;;;;;;4.90;95.32;97921.56;5140699;22;20223;-90
2022/11/14 06:44:58;;;;;;;23.67;14.18;;;;;;;4.97;94.83;97919.50;5140145;23;20702;-89
2022/11/14 06:47:21;;;;;;;25.98;16.75;;;;;;;5.01;95.18;97923.63;5138459;23;20236;-89
2022/11/14 06:49:43;;;;;;;20.63;14.35;;;;;;;5.05;94.85;97930.28;5138814;23;20240;-89
2022/11/14 06:52:05;;;;;;;23.90;14.20;;;;;;;5.10;94.51;97936.91;5138557;23;20325;-90
2022/11/14 06:54:27;;;;;;;21.35;14.85;;;;;;;5.11;94.40;97935.16;5138612;23;20309;-89
2022/11/14 06:56:48;;;;;;;18.00;13.50;;;;;;;5.13;93.33;97930.75;5139591;23;20183;-88
2022/11/14 06:59:10;;;;;;;21.55;14.20;;;;;;;5.20;94.05;97931.22;5141353;22;20426;-90
2022/11/14 07:01:31;;;;;;;20.88;14.20;;;;;;;5.31;94.35;97928.94;5140053;23;20183;-90
2022/11/14 07:03:56;;;;;;;23.17;14.30;;;;;;;5.42;93.93;97931.78;5141709;22;20287;-89
2022/11/14 07:06:19;;;;;;;25.80;15.20;;;;;;;5.48;94.11;97933.25;5139749;23;20174;-89
2022/11/14 07:08:41;;;;;;;22.85;15.20;;;;;;;5.50;94.17;97931.41;5139954;23;20199;-89
2022/11/14 07:11:03;;;;;;;22.85;14.93;;;;;;;5.53;94.48;97942.41;5138616;23;20178;-86
2022/11/14 07:13:25;;;;;;;20.70;13.73;;;;;;;5.57;94.17;97956.06;5138926;23;20181;-88
2022/11/14 07:15:51;;;;;;;22.38;15.10;;;;;;;5.61;94.38;97943.72;5140579;23;20175;-86
2022/11/14 07:18:13;;;;;;;21.85;14.85;;;;;;;5.66;94.66;97951.25;5140651;23;20584;-87
2022/11/14 07:20:36;;;;;;;28.52;19.75;;;;;;;5.66;94.21;97946.06;5138932;23;20182;-86
2022/11/14 07:22:58;;;;;;;22.10;15.02;;;;;;;5.68;94.47;97949.41;5137742;23;20929;-86
2022/11/14 07:25:21;;;;;;;22.67;15.63;;;;;;;5.68;93.93;97949.41;5139078;22;20180;-87
2022/11/14 07:27:43;;;;;;;18.20;13.65;;;;;;;5.65;93.63;97944.38;5138804;23;20183;-88
2022/11/14 07:30:05;;;;;;;22.77;14.50;;;;;;;5.62;93.52;97944.53;5139217;23;20172;-87
2022/11/14 07:32:27;;;;;;;22.88;15.30;;;;;;;5.60;93.33;97936.03;5140300;23;20177;-88
2022/11/14 07:34:49;;;;;;;19.23;13.23;;;;;;;5.62;93.29;97944.53;5138464;23;20633;-88
2022/11/14 07:37:11;;;;;;;21.08;14.60;;;;;;;5.60;93.18;97946.38;5138623;23;20232;-88
2022/11/14 07:39:33;;;;;;;22.67;14.93;;;;;;;5.71;93.28;97954.41;5139134;23;20173;-88
2022/11/14 07:41:55;;;;;;;20.80;14.68;;;;;;;5.92;93.77;97953.34;5138431;23;20182;-87
2022/11/14 07:44:16;;;;;;;21.48;15.40;;;;;;;6.11;93.59;97955.72;5141039;23;20520;-88
2022/11/14 07:46:38;;;;;;;26.38;15.93;;;;;;;6.14;93.23;97962.50;5140459;23;20562;-88
2022/11/14 07:48:59;;;;;;;23.38;15.50;;;;;;;6.12;94.23;97962.56;5139946;23;20203;-87
2022/11/14 07:51:21;;;;;;;23.27;14.95;;;;;;;6.07;94.10;97965.47;5141681;22;20205;-87
2022/11/14 07:53:45;;;;;;;27.98;15.60;;;;;;;6.03;93.78;97969.13;5139608;23;20276;-88
2022/11/14 07:56:09;;;;;;;23.70;14.95;;;;;;;5.98;93.55;97979.72;5138018;23;20179;-88
2022/11/14 07:58:31;;;;;;;21.27;14.52;;;;;;;5.96;93.71;97972.97;5139136;23;20202;-88
2022/11/14 08:00:53;;;;;;;23.73;15.07;;;;;;;5.96;93.58;97973.81;5139321;23;20213;-88
2022/11/14 08:03:15;;;;;;;21.08;14.95;;;;;;;6.01;94.01;97965.81;5136922;23;20682;-88
2022/11/14 08:05:36;;;;;;;25.02;16.45;;;;;;;6.08;94.29;97974.94;5138826;23;20652;-88
2022/11/14 08:07:57;;;;;;;22.30;16.13;;;;;;;6.14;94.75;97983.19;5138252;23;20173;-88
2022/11/14 08:10:20;;;;;;;24.52;16.15;;;;;;;6.23;94.59;97996.50;5139381;23;20231;-88
2022/11/14 08:12:42;;;;;;;23.52;16.25;;;;;;;6.28;94.63;97999.66;5139488;23;20527;-88
2022/11/14 08:15:04;;;;;;;21.38;15.35;;;;;;;6.35;95.50;97995.84;5138108;23;20170;-88
2022/11/14 08:17:26;;;;;;;22.08;15.80;;;;;;;6.40;95.37;97993.00;5133534;23;20171;-88
2022/11/14 08:19:47;;;;;;;23.50;16.23;;;;;;;6.45;95.72;98001.34;5138609;23;20175;-87
2022/11/14 08:22:09;;;;;;;24.48;16.80;;;;;;;6.52;95.36;98005.31;5139859;23;20279;-88
2022/11/14 08:24:31;;;;;;;21.83;16.02;;;;;;;6.55;95.73;97998.19;5136724;22;20593;-88
2022/11/14 08:26:54;;;;;;;25.80;16.30;;;;;;;6.60;95.81;98001.41;5137223;23;20836;-88
2022/11/14 08:29:15;;;;;;;24.02;16.42;;;;;;;6.65;96.51;98004.56;5137693;23;20215;-88
2022/11/14 08:31:37;;;;;;;22.05;15.70;;;;;;;6.67;95.55;97997.53;5138823;23;20173;-88
2022/11/14 08:33:58;;;;;;;24.55;15.38;;;;;;;6.70;96.18;98000.78;5140157;23;20205;-87
2022/11/14 08:36:20;;;;;;;22.05;15.50;;;;;;;6.73;96.26;98002.38;5139946;23;20211;-88
2022/11/14 08:38:42;;;;;;;23.60;15.90;;;;;;;6.80;95.93;98004.56;5140094;23;20205;-88
2022/11/14 08:41:04;;;;;;;23.27;15.68;;;;;;;6.86;96.14;98003.41;5141642;23;20178;-88
2022/11/14 08:43:28;;;;;;;24.20;16.55;;;;;;;6.96;95.58;98009.72;5139827;23;20216;-88
2022/11/14 08:45:49;;;;;;;20.63;14.55;;;;;;;7.05;97.04;98010.03;5141956;23;20185;-88
2022/11/14 08:48:11;;;;;;;25.90;16.17;;;;;;;7.17;96.86;98010.22;5140339;23;20185;-88
2022/11/14 08:50:33;;;;;;;24.48;16.17;;;;;;;7.25;95.93;98018.38;5139539;23;20742;-88
2022/11/14 08:52:54;;;;;;;23.20;15.50;;;;;;;7.30;96.34;98020.72;5139850;23;20582;-88
2022/11/14 08:55:16;;;;;;;22.13;15.90;;;;;;;7.33;95.51;98017.97;5139222;23;20182;-88
2022/11/14 08:57:38;;;;;;;23.48;16.10;;;;;;;7.45;97.14;98031.06;5141876;23;20170;-88
2022/11/14 09:00:01;;;;;;;25.85;16.48;;;;;;;7.54;96.72;98030.53;5142645;23;20174;-88
2022/11/14 09:02:23;;;;;;;22.08;15.18;;;;;;;7.60;95.37;98035.38;5142155;23;20173;-88
2022/11/14 09:04:44;;;;;;;23.55;17.13;;;;;;;7.66;95.51;98029.84;5141849;22;20680;-88
2022/11/14 09:07:06;;;;;;;24.17;16.70;;;;;;;7.71;95.57;98039.03;5139971;23;20258;-88
2022/11/14 09:09:28;;;;;;;23.00;16.08;;;;;;;7.77;96.91;98037.81;5140783;23;20201;-88
2022/11/14 09:11:49;;;;;;;23.63;16.42;;;;;;;7.77;95.51;98046.47;5139014;23;20174;-88
2022/11/14 09:14:11;;;;;;;24.40;16.38;;;;;;;7.76;97.00;98051.75;5139553;23;20182;-88
2022/11/14 09:16:34;;;;;;;24.55;16.00;;;;;;;7.79;97.34;98056.75;5138590;23;20183;-88
2022/11/14 09:18:56;;;;;;;23.33;16.52;;;;;;;7.84;97.09;98057.31;5138758;23;20174;-91
2022/11/14 09:21:17;;;;;;;32.20;18.45;;;;;;;7.86;96.49;98055.47;5139497;23;20181;-92
2022/11/14 09:23:39;;;;;;;39.20;25.40;;;;;;;7.88;96.76;98049.25;5139352;23;20211;-90
2022/11/14 09:26:03;;;;;;;23.05;15.77;;;;;;;7.93;96.81;98056.78;5141484;23;20212;-90
2022/11/14 09:28:25;;;;;;;19.60;15.27;;;;;;;7.96;97.28;98053.06;5143800;23;20158;-89
2022/11/14 09:30:47;;;;;;;25.20;16.70;;;;;;;8.00;96.16;98059.75;5142517;23;20209;-89
2022/11/14 09:33:10;;;;;;;18.17;13.90;;;;;;;8.04;97.00;98057.81;5140898;23;20201;-91
2022/11/14 09:35:35;;;;;;;21.60;14.70;;;;;;;8.07;96.11;98066.28;5141757;22;20182;-87
2022/11/14 09:38:00;;;;;;;23.80;15.68;;;;;;;8.08;97.37;98054.13;5141072;23;20182;-88
2022/11/14 09:40:22;;;;;;;22.20;15.30;;;;;;;8.09;97.70;98058.41;5139065;23;20174;-87
2022/11/14 09:42:59;;;;;;;23.17;14.00;;;;;;;8.13;97.68;98054.72;5139647;23;20198;-89
2022/11/14 09:45:21;;;;;;;19.48;12.57;;;;;;;8.17;98.69;98054.44;5139048;23;20696;-88
2022/11/14 09:47:44;;;;;;;21.70;14.45;;;;;;;8.24;98.68;98055.75;5140720;23;20161;-90
2022/11/14 09:50:13;;;;;;;21.10;16.08;;;;;;;8.32;99.47;98066.50;5142836;23;20530;-89
2022/11/14 09:52:36;;;;;;;15.63;11.00;;;;;;;8.36;98.92;98075.81;5141112;23;20184;-90
2022/11/14 09:55:01;;;;;;;13.80;9.85;;;;;;;8.42;100.00;98070.25;5138554;23;20590;-87
2022/11/14 09:57:22;;;;;;;12.45;9.95;;;;;;;8.52;100.00;98071.34;5139085;23;20732;-89
2022/11/14 09:59:44;;;;;;;34.13;22.77;;;;;;;8.60;100.00;98069.97;5139832;23;20185;-88
2022/11/14 10:02:14;;;;;;;41.40;26.97;;;;;;;8.67;100.00;98055.63;5137565;23;20569;-88
2022/11/14 10:04:46;;;;;;;26.97;18.87;;;;;;;8.73;100.00;98051.84;5139194;23;20603;-88
2022/11/14 10:07:19;;;;;;;33.30;24.90;;;;;;;8.77;100.00;98045.53;5137681;23;20601;-88
2022/11/14 10:09:51;;;;;;;17.60;14.00;;;;;;;8.79;100.00;98039.28;5138103;23;20585;-88
2022/11/14 10:12:16;;;;;;;13.07;9.98;;;;;;;8.85;100.00;98046.72;5138823;23;20807;-88
2022/11/14 10:15:05;;;;;;;12.33;9.73;;;;;;;8.92;100.00;98034.19;5137506;23;20174;-89
2022/11/14 10:17:42;;;;;;;32.60;24.27;;;;;;;8.96;100.00;98042.53;5139145;23;20573;-89
2022/11/14 10:20:11;;;;;;;15.50;11.05;;;;;;;9.07;100.00;98037.47;5140709;22;20681;-89
2022/11/14 10:22:47;;;;;;;12.52;9.60;;;;;;;9.19;100.00;98036.69;5139483;23;20506;-89
2022/11/14 10:25:21;;;;;;;15.43;9.52;;;;;;;9.27;100.00;98031.00;5138895;23;20177;-89
2022/11/14 10:27:46;;;;;;;9.10;7.07;;;;;;;9.29;100.00;98029.13;5139013;23;20903;-89
2022/11/14 10:30:17;;;;;;;12.82;8.13;;;;;;;9.32;100.00;98023.72;5140368;23;20613;-89
2022/11/14 10:33:00;;;;;;;8.27;6.63;;;;;;;9.34;100.00;98020.09;5139768;23;20300;-89
2022/11/14 10:35:24;;;;;;;9.55;6.90;;;;;;;9.38;100.00;98029.34;5137448;23;20174;-89
2022/11/14 10:37:55;;;;;;;8.70;5.90;;;;;;;9.43;100.00;98022.13;5138454;23;20526;-88
2022/11/14 10:40:19;;;;;;;8.00;6.22;;;;;;;9.48;100.00;98028.66;5138481;23;21148;-89
2022/11/14 10:42:42;;;;;;;8.93;5.60;;;;;;;9.53;100.00;98020.56;5139648;23;20167;-89
2022/11/14 10:45:08;;;;;;;6.87;5.87;;;;;;;9.60;100.00;98029.66;5137983;23;20573;-88
2022/11/14 10:47:35;;;;;;;6.00;5.20;;;;;;;9.66;100.00;98024.03;5137904;23;20597;-89
2022/11/14 10:49:59;;;;;;;8.13;5.70;;;;;;;9.72;100.00;98031.44;5137917;23;20574;-88
2022/11/14 10:52:24;;;;;;;7.43;5.17;;;;;;;9.77;100.00;98027.59;5138534;23;20966;-88
2022/11/14 10:54:50;;;;;;;5.90;4.60;;;;;;;9.86;100.00;98026.97;5139039;22;20562;-88
2022/11/14 10:57:16;;;;;;;5.90;4.53;;;;;;;9.96;100.00;98022.88;5138930;23;20608;-89
2022/11/14 10:59:38;;;;;;;6.63;4.60;;;;;;;10.03;100.00;98019.75;5138110;23;20257;-88
2022/11/14 11:01:59;;;;;;;4.95;4.22;;;;;;;10.12;100.00;98018.31;5138250;23;20583;-89
2022/11/14 11:04:25;;;;;;;4.97;3.93;;;;;;;10.21;100.00;98015.91;5137146;23;20813;-88
2022/11/14 11:06:48;;;;;;;4.60;3.90;;;;;;;10.29;100.00;98018.81;5138303;23;20661;-88